Airfield :







YOU CAN JOIN US ON...

 
LOGIN :

Register | Disclaimer

   EN    FR    IT 

 









Legend :    VFR   Marginal VFR   IFR   Intensive IFR   Very Intensive IFR
Visi :
Ceiling :
>= 8 km
>= 3000ft
5 to 8 km
1000 to 3000 ft
1500m to 5 km
500 to 1000 ft
800 to 1500m
200 to 500 ft
< 800m
< 200 ft
Symbols :   Thunderstorms  Fog  Heavy snow  Heavy precipitations  Wind > 20 kt






- Airport Elevation : 108 ft
- IATA code : YAY


CYAY - St Anthony

CURRENT METAR :
  • 241100Z AUTO 01006KT 9SM SCT044 BKN055 M13/M16 A3025 RMK SLP247

EXPIRED METARs :
  • 241000Z AUTO 36006KT 9SM OVC050 M14/M17 A3024 RMK SLP243
  • 240900Z AUTO 33007KT 9SM OVC055 M15/M18 A3022 RMK SLP238

TAF TAF CYAY
Valid from the 24 at 08:00 until the 24 at 20:00 UTC


240738Z 2408/2420 28006KT P6SM FEW050
FM241200 07012KT P6SM BKN015
TEMPO 2412/2418 BKN025
FM241800 09015KT P6SM OVC012
PROB30 2418/2420 3SM -FZDZ BR BKN008 OVC012 RMK FCST BASED ON AUTO OBS. NXT FCST BY 241400Z



MET'MAP, your aeronautical weather chart ! - Copyright ORBIFLY December 2007 - Disclaimer

ORBIFLY MET'MAP TEAM :

Programming & Development : Alexandra Zaïnal
Concept & original design : Baudouin d'Aumeries
Assistance for programming : Marc-Olivier Méhu
Technical & hardware support : Manuel Goepfert

Contact : metmap@orbifly.com




SOURCES & CREDITS :

   NOAA